Hooper, Washington
Current Conditions -  °F | °C
As of 12:53 PM on Tuesday 27 Jan 2015 (Local Time) from KALW Reporting Station
Overcast Overcast  
Wind Chill: 37°   Ceiling: 600
Heat Index: 40°   Visibility: 10mi
Dew Point: 37°   Wind: 5mph
Humidity: 89%   Direction: 240°WSW
Pressure: 30.04"   Gusts: NA
Location:  46.75°N, 118.15°W
Report Text: KALW 272053Z 24004KT 10SM OVC006 04/03 A3004 RMK AO2 SLP182 FG BNK 2 E-S T00440028 50001
Loading
Personal Weather Stations






























Interactive Weather Map New forecast layout! Learn more

10-Day Weather Forecast

Advertisements
Track Severe Weather on mobile